createdAt,value
2023-01-22T00:01:09.357Z,30.50
2023-01-22T00:03:37.243Z,27.40
2023-01-22T00:06:04.780Z,25.50
2023-01-22T00:08:32.624Z,25.40
2023-01-22T00:11:00.145Z,21.70
2023-01-22T00:13:28.009Z,23.00
2023-01-22T00:15:57.613Z,22.60
2023-01-22T00:18:25.063Z,24.00
2023-01-22T00:20:53.593Z,22.20
2023-01-22T00:23:21.524Z,20.20
2023-01-22T00:25:49.037Z,20.90
2023-01-22T00:28:17.760Z,22.60
2023-01-22T00:30:45.063Z,22.00
2023-01-22T00:33:12.630Z,23.10
2023-01-22T00:35:40.137Z,22.00
2023-01-22T00:38:07.607Z,24.00
2023-01-22T00:40:34.976Z,23.70
2023-01-22T00:43:02.712Z,23.70
2023-01-22T00:45:30.995Z,24.00
2023-01-22T00:48:00.888Z,25.20
2023-01-22T00:50:28.477Z,25.20
2023-01-22T00:52:56.112Z,25.10
2023-01-22T00:55:23.709Z,23.90
2023-01-22T00:57:51.165Z,25.00
2023-01-22T01:00:20.483Z,24.80
2023-01-22T01:03:07.370Z,24.70
2023-01-22T01:05:35.270Z,25.10
2023-01-22T01:08:02.752Z,24.50
2023-01-22T01:10:30.282Z,23.50
2023-01-22T01:12:59.078Z,27.90
2023-01-22T01:15:26.429Z,24.80
2023-01-22T01:17:53.785Z,25.30
2023-01-22T01:20:21.210Z,25.80
2023-01-22T01:22:48.638Z,26.60
2023-01-22T01:25:16.327Z,26.40
2023-01-22T01:27:43.665Z,25.20
2023-01-22T01:30:11.326Z,29.20
2023-01-22T01:32:38.885Z,29.10
2023-01-22T01:35:06.986Z,25.40
2023-01-22T01:37:34.480Z,26.60
2023-01-22T01:40:01.966Z,25.30
2023-01-22T01:42:35.293Z,25.70
2023-01-22T01:45:26.216Z,26.20
2023-01-22T01:48:07.375Z,25.90
2023-01-22T01:50:34.883Z,24.70
2023-01-22T01:53:02.157Z,24.80
2023-01-22T01:55:30.640Z,25.00
2023-01-22T01:58:01.303Z,25.20
2023-01-22T02:00:29.209Z,26.10
2023-01-22T02:02:59.317Z,28.00
2023-01-22T02:05:32.603Z,25.40
2023-01-22T02:08:00.806Z,22.30
2023-01-22T02:10:28.394Z,27.10
2023-01-22T02:12:57.152Z,26.30
2023-01-22T02:15:24.526Z,23.80
2023-01-22T02:17:52.150Z,23.50
2023-01-22T02:20:20.164Z,21.80
2023-01-22T02:22:50.009Z,22.30
2023-01-22T02:25:18.919Z,21.80
2023-01-22T02:27:46.505Z,22.00
2023-01-22T02:30:14.586Z,20.20
2023-01-22T02:32:41.987Z,20.70
2023-01-22T02:35:09.685Z,20.20
2023-01-22T02:37:37.712Z,20.60
2023-01-22T02:40:06.870Z,21.30
2023-01-22T02:42:34.416Z,22.80
2023-01-22T02:45:02.116Z,22.40
2023-01-22T02:47:29.892Z,24.10
2023-01-22T02:49:57.319Z,23.80
2023-01-22T02:52:24.905Z,23.30
2023-01-22T02:54:52.620Z,23.30
2023-01-22T02:57:20.306Z,22.70
2023-01-22T02:59:47.877Z,24.30
2023-01-22T03:02:15.628Z,22.40
2023-01-22T03:04:43.381Z,21.80
2023-01-22T03:07:10.882Z,20.40
2023-01-22T03:09:38.586Z,24.40
2023-01-22T03:12:06.639Z,24.40
2023-01-22T03:14:54.347Z,24.30
2023-01-22T03:17:40.616Z,21.50
2023-01-22T03:20:27.778Z,20.00
2023-01-22T03:22:55.223Z,18.70
2023-01-22T03:25:22.816Z,20.10
2023-01-22T03:28:08.987Z,18.10
2023-01-22T03:30:37.350Z,18.90
2023-01-22T03:33:04.972Z,18.70
2023-01-22T03:35:32.812Z,20.40
2023-01-22T03:38:05.683Z,18.80
2023-01-22T03:40:32.967Z,24.70
2023-01-22T03:43:00.991Z,20.50
2023-01-22T03:45:28.928Z,24.60
2023-01-22T03:47:57.045Z,22.40
2023-01-22T03:50:29.744Z,22.90
2023-01-22T03:52:58.170Z,24.40
2023-01-22T03:55:28.322Z,25.60
2023-01-22T03:57:55.754Z,27.00
2023-01-22T04:00:23.516Z,27.60
2023-01-22T04:02:52.827Z,29.10
2023-01-22T04:05:21.428Z,31.00
2023-01-22T04:07:50.730Z,31.10
2023-01-22T04:10:21.499Z,35.30
2023-01-22T04:12:49.600Z,30.10
2023-01-22T04:15:20.334Z,35.20
2023-01-22T04:17:49.330Z,34.70
2023-01-22T04:20:46.707Z,35.30
2023-01-22T04:23:30.116Z,34.90
2023-01-22T04:25:58.023Z,35.00
2023-01-22T04:28:25.466Z,33.40
2023-01-22T04:30:55.212Z,31.50
2023-01-22T04:33:33.531Z,32.10
2023-01-22T04:36:06.273Z,35.90
2023-01-22T04:38:34.074Z,36.10
2023-01-22T04:41:01.492Z,37.30
2023-01-22T04:43:29.038Z,35.10
2023-01-22T04:45:56.395Z,33.70
2023-01-22T04:48:29.053Z,38.40
2023-01-22T04:50:56.455Z,40.90
2023-01-22T04:53:26.763Z,38.30
2023-01-22T04:55:54.279Z,41.60
2023-01-22T04:58:22.611Z,40.40
2023-01-22T05:00:51.559Z,40.90
2023-01-22T05:03:19.218Z,43.60
2023-01-22T05:05:46.878Z,39.20
2023-01-22T05:08:14.630Z,40.60
2023-01-22T05:10:42.371Z,37.80
2023-01-22T05:13:13.421Z,38.50
2023-01-22T05:15:42.838Z,40.60
2023-01-22T05:18:12.960Z,39.00
2023-01-22T05:20:47.618Z,40.80
2023-01-22T05:23:15.839Z,44.00
2023-01-22T05:25:50.563Z,40.40
2023-01-22T05:28:23.907Z,38.70
2023-01-22T05:31:20.573Z,39.00
2023-01-22T05:33:53.850Z,39.00
2023-01-22T05:36:22.916Z,37.20
2023-01-22T05:38:51.279Z,36.00
2023-01-22T05:41:18.947Z,36.50
2023-01-22T05:43:46.497Z,35.40
2023-01-22T05:46:18.677Z,34.00
2023-01-22T05:49:24.577Z,31.60
2023-01-22T05:51:55.404Z,28.60
2023-01-22T05:54:23.002Z,26.90
2023-01-22T05:56:50.978Z,27.40
2023-01-22T05:59:18.821Z,26.10
2023-01-22T06:01:55.454Z,31.60
2023-01-22T06:04:22.963Z,27.40
2023-01-22T06:06:50.490Z,26.00
2023-01-22T06:09:20.143Z,26.90
2023-01-22T06:11:47.782Z,24.30
2023-01-22T06:14:15.784Z,25.10
2023-01-22T06:16:43.398Z,29.40
2023-01-22T06:19:29.932Z,25.90
2023-01-22T06:21:57.498Z,26.10
2023-01-22T06:24:30.251Z,24.10
2023-01-22T06:26:59.065Z,26.60
2023-01-22T06:29:35.077Z,27.50
2023-01-22T06:32:02.667Z,25.00
2023-01-22T06:34:30.342Z,23.90
2023-01-22T06:36:59.746Z,27.20
2023-01-22T06:39:28.597Z,25.70
2023-01-22T06:44:28.408Z,23.10
2023-01-22T06:46:55.878Z,23.40
2023-01-22T06:49:27.671Z,26.10
2023-01-22T06:51:55.319Z,22.40
2023-01-22T06:54:23.615Z,20.40
2023-01-22T06:56:51.236Z,18.00
2023-01-22T06:59:18.976Z,19.20
2023-01-22T07:01:46.546Z,20.20
2023-01-22T07:04:14.039Z,22.90
2023-01-22T07:06:41.600Z,20.90
2023-01-22T07:09:09.052Z,24.20
2023-01-22T07:11:36.429Z,21.90
2023-01-22T07:14:04.032Z,20.00
2023-01-22T07:16:32.465Z,21.90
2023-01-22T07:19:00.550Z,21.60
2023-01-22T07:21:28.194Z,21.80
2023-01-22T07:23:55.999Z,23.80
2023-01-22T07:26:23.526Z,23.70
2023-01-22T07:28:51.135Z,22.40
2023-01-22T07:31:18.704Z,20.20
2023-01-22T07:33:46.441Z,18.40
2023-01-22T07:36:13.926Z,20.10
2023-01-22T07:38:41.710Z,21.10
2023-01-22T07:41:20.532Z,20.40
2023-01-22T07:43:53.712Z,21.10
2023-01-22T07:46:21.099Z,19.10
2023-01-22T07:48:48.555Z,18.50
2023-01-22T07:51:16.198Z,16.00
2023-01-22T07:53:43.717Z,19.00
2023-01-22T07:56:11.328Z,21.50
2023-01-22T07:58:39.738Z,20.80
2023-01-22T08:01:07.711Z,18.60
2023-01-22T08:03:35.183Z,17.90
2023-01-22T08:06:03.208Z,17.90
2023-01-22T08:08:30.842Z,16.80
2023-01-22T08:10:58.857Z,20.30
2023-01-22T08:13:26.646Z,21.00
2023-01-22T08:15:57.089Z,22.00
2023-01-22T08:18:24.516Z,19.30
2023-01-22T08:20:54.982Z,16.60
2023-01-22T08:23:22.660Z,16.20
2023-01-22T08:25:50.191Z,24.00
2023-01-22T08:28:17.616Z,17.20
2023-01-22T08:30:46.646Z,20.50
2023-01-22T08:33:16.125Z,17.80
2023-01-22T08:35:43.583Z,17.00
2023-01-22T08:38:11.405Z,16.50
2023-01-22T08:40:38.853Z,15.70
2023-01-22T08:43:06.532Z,18.10
2023-01-22T08:45:34.025Z,17.70
2023-01-22T08:48:01.551Z,21.70
2023-01-22T08:50:29.946Z,15.30
2023-01-22T08:52:58.204Z,24.50
2023-01-22T08:55:27.873Z,33.40
2023-01-22T08:57:56.335Z,20.40
2023-01-22T09:00:24.706Z,23.20
2023-01-22T09:02:52.433Z,18.30
2023-01-22T09:05:19.827Z,16.10
2023-01-22T09:07:47.582Z,15.60
2023-01-22T09:10:15.264Z,17.20
2023-01-22T09:12:42.757Z,15.80
2023-01-22T09:15:10.872Z,16.70
2023-01-22T09:17:38.570Z,17.30
2023-01-22T09:20:06.351Z,13.70
2023-01-22T09:22:34.028Z,14.80
2023-01-22T09:25:01.578Z,16.60
2023-01-22T09:27:29.183Z,23.10
2023-01-22T09:29:56.637Z,23.10
2023-01-22T09:32:24.365Z,21.00
2023-01-22T09:34:52.011Z,27.80
2023-01-22T09:37:19.764Z,19.70
2023-01-22T09:39:50.769Z,17.50
2023-01-22T09:42:28.507Z,14.90
2023-01-22T09:44:57.826Z,15.00
2023-01-22T09:47:47.647Z,17.20
2023-01-22T09:50:26.601Z,16.20
2023-01-22T09:52:55.121Z,16.60
2023-01-22T09:55:24.450Z,13.90
2023-01-22T09:57:53.058Z,13.80
2023-01-22T10:00:40.272Z,13.40
2023-01-22T10:03:22.573Z,15.40
2023-01-22T10:05:59.774Z,15.30
2023-01-22T10:08:32.821Z,15.40
2023-01-22T10:11:01.440Z,14.60
2023-01-22T10:13:34.650Z,14.90
2023-01-22T10:16:02.327Z,12.90
2023-01-22T10:19:03.084Z,12.60
2023-01-22T10:21:45.732Z,13.60
2023-01-22T10:26:52.781Z,18.60
2023-01-22T10:29:34.299Z,15.90
2023-01-22T10:32:21.810Z,13.90
2023-01-22T10:35:05.246Z,13.00
2023-01-22T10:37:46.677Z,13.60
2023-01-22T10:40:21.803Z,12.70
2023-01-22T10:43:12.385Z,13.60
2023-01-22T10:45:51.840Z,15.60
2023-01-22T10:48:19.419Z,17.70
2023-01-22T10:50:47.190Z,18.40
2023-01-22T10:53:33.961Z,17.20
2023-01-22T10:56:04.267Z,14.80
2023-01-22T10:58:37.093Z,16.70
2023-01-22T11:01:07.413Z,13.50
2023-01-22T11:03:36.961Z,14.80
2023-01-22T11:06:16.275Z,16.20
2023-01-22T11:08:47.611Z,14.20
2023-01-22T11:11:15.971Z,15.20
2023-01-22T11:13:54.344Z,13.70
2023-01-22T11:16:23.279Z,13.30
2023-01-22T11:19:07.176Z,17.60
2023-01-22T11:21:52.518Z,16.30
2023-01-22T11:24:23.354Z,16.20
2023-01-22T11:27:16.952Z,15.00
2023-01-22T11:30:03.225Z,17.40
2023-01-22T11:33:01.815Z,14.00
2023-01-22T11:35:41.780Z,12.80
2023-01-22T11:38:31.625Z,12.40
2023-01-22T11:41:09.789Z,15.50
2023-01-22T11:44:02.373Z,17.80
2023-01-22T11:49:06.871Z,17.10
2023-01-22T11:52:06.674Z,21.10
2023-01-22T11:54:37.378Z,20.00
2023-01-22T11:57:19.503Z,16.60
2023-01-22T12:00:10.483Z,18.90
2023-01-22T12:02:53.673Z,22.30
2023-01-22T12:05:37.783Z,20.00
2023-01-22T12:08:20.829Z,22.50
2023-01-22T12:11:17.464Z,23.90
2023-01-22T12:13:59.359Z,20.10
2023-01-22T12:16:39.528Z,16.70
2023-01-22T12:19:26.990Z,18.60
2023-01-22T12:22:15.357Z,20.00
2023-01-22T12:24:49.405Z,18.50
2023-01-22T12:27:27.288Z,19.10
2023-01-22T12:30:03.264Z,19.00
2023-01-22T12:32:30.691Z,17.10
2023-01-22T12:35:09.325Z,18.40
2023-01-22T12:37:55.969Z,19.30
2023-01-22T12:40:45.113Z,16.90
2023-01-22T12:43:12.877Z,17.20
2023-01-22T12:45:53.138Z,17.10
2023-01-22T12:48:35.851Z,31.40
2023-01-22T12:51:03.771Z,25.80
2023-01-22T12:53:35.053Z,15.60
2023-01-22T12:56:04.799Z,18.60
2023-01-22T12:58:40.799Z,18.00
2023-01-22T13:01:12.758Z,24.20
2023-01-22T13:03:41.228Z,21.90
2023-01-22T13:06:30.577Z,20.30
2023-01-22T13:08:58.007Z,19.20
2023-01-22T13:11:32.516Z,19.40
2023-01-22T13:14:14.783Z,19.30
2023-01-22T13:17:00.716Z,22.50
2023-01-22T13:19:30.415Z,20.00
2023-01-22T13:22:01.215Z,18.90
2023-01-22T13:24:28.737Z,19.00
2023-01-22T13:27:00.858Z,18.70
2023-01-22T16:49:31.560Z,16.30
2023-01-22T16:52:12.997Z,12.60
2023-01-22T16:54:44.609Z,11.50
2023-01-22T16:57:13.759Z,12.20
2023-01-22T16:59:41.281Z,11.40
2023-01-22T17:02:13.880Z,10.60
2023-01-22T17:04:41.811Z,12.30
2023-01-22T17:07:15.379Z,13.20
2023-01-22T17:09:48.911Z,10.50
2023-01-22T17:12:16.617Z,8.50
2023-01-22T17:14:46.352Z,7.50
2023-01-22T17:17:13.972Z,6.90
2023-01-22T17:19:41.751Z,8.40
2023-01-22T17:22:10.676Z,9.00
2023-01-22T17:24:38.082Z,8.80
2023-01-22T17:27:05.563Z,8.10
2023-01-22T17:29:34.993Z,12.10
2023-01-22T17:32:03.428Z,16.00
2023-01-22T17:34:31.364Z,21.60
2023-01-22T17:36:59.251Z,21.00
2023-01-22T17:39:28.187Z,19.10
2023-01-22T17:41:56.139Z,19.70
2023-01-22T17:44:26.538Z,17.40
2023-01-22T17:46:56.270Z,18.40
2023-01-22T17:49:23.859Z,20.00
2023-01-22T17:51:51.537Z,18.20
2023-01-22T17:54:20.358Z,15.10
2023-01-22T17:56:49.579Z,15.90
2023-01-22T17:59:17.234Z,16.50
2023-01-22T18:01:45.475Z,14.50
2023-01-22T18:04:13.639Z,16.70
2023-01-22T18:06:42.658Z,15.30
2023-01-22T18:09:11.065Z,13.10
2023-01-22T18:11:38.542Z,12.30
2023-01-22T18:14:07.678Z,12.30
2023-01-22T18:16:37.477Z,13.50
2023-01-22T18:19:07.469Z,14.80
2023-01-22T18:21:36.468Z,13.70
2023-01-22T18:24:05.234Z,16.60
2023-01-22T18:26:33.103Z,14.30
2023-01-22T18:29:00.987Z,14.40
2023-01-22T18:31:29.129Z,15.30
2023-01-22T18:34:01.211Z,16.70
2023-01-22T18:36:30.938Z,16.00
2023-01-22T18:39:03.403Z,20.30
2023-01-22T18:41:31.019Z,18.10
2023-01-22T18:44:00.449Z,16.80
2023-01-22T18:46:33.393Z,20.00
2023-01-22T18:49:03.748Z,17.40
2023-01-22T18:51:32.097Z,16.90
2023-01-22T18:54:00.949Z,14.50
2023-01-22T18:56:28.724Z,14.80
2023-01-22T18:58:57.496Z,15.60
2023-01-22T19:01:27.195Z,17.30
2023-01-22T19:03:59.455Z,17.50
2023-01-22T19:06:29.448Z,16.70
2023-01-22T19:08:58.579Z,19.90
2023-01-22T19:11:26.481Z,24.80
2023-01-22T19:13:54.679Z,29.90
2023-01-22T19:16:23.031Z,32.00
2023-01-22T19:18:58.214Z,29.10
2023-01-22T19:21:26.260Z,28.50
2023-01-22T19:23:56.007Z,25.90
2023-01-22T19:26:26.085Z,22.50
2023-01-22T19:28:56.261Z,22.60
2023-01-22T19:31:26.085Z,24.20
2023-01-22T19:33:54.705Z,24.10
2023-01-22T19:36:23.573Z,21.20
2023-01-22T19:38:51.249Z,18.90
2023-01-22T19:41:19.078Z,21.90
2023-01-22T19:43:47.105Z,21.80
2023-01-22T19:46:15.061Z,19.80
2023-01-22T19:48:42.730Z,22.60
2023-01-22T19:51:12.687Z,21.60
2023-01-22T19:53:40.518Z,22.50
2023-01-22T19:56:23.383Z,22.50
2023-01-22T19:58:53.477Z,20.90
2023-01-22T20:01:21.476Z,27.50
2023-01-22T20:03:49.269Z,27.70
2023-01-22T20:06:18.253Z,26.70
2023-01-22T20:08:46.250Z,23.60
2023-01-22T20:11:14.166Z,23.00
2023-01-22T20:13:43.425Z,23.00
2023-01-22T20:16:20.847Z,26.50
2023-01-22T20:18:48.814Z,28.20
2023-01-22T20:21:17.268Z,31.40
2023-01-22T20:23:45.837Z,31.40
2023-01-22T20:26:13.930Z,27.10
2023-01-22T20:28:41.494Z,23.50
2023-01-22T20:31:12.858Z,19.30
2023-01-22T20:33:40.437Z,19.60
2023-01-22T20:36:10.677Z,21.10
2023-01-22T20:38:38.261Z,22.30
2023-01-22T20:41:09.358Z,22.20
2023-01-22T20:43:37.806Z,21.90
2023-01-22T20:46:10.854Z,20.90
2023-01-22T20:48:38.658Z,22.80
2023-01-22T20:51:15.311Z,21.60
2023-01-22T20:53:44.074Z,21.40
2023-01-22T20:56:13.558Z,25.40
2023-01-22T20:58:41.100Z,27.30
2023-01-22T21:01:16.719Z,28.30
2023-01-22T21:03:44.384Z,24.50
2023-01-22T21:06:14.490Z,23.40
2023-01-22T21:08:43.008Z,25.20
2023-01-22T21:11:12.469Z,27.00
2023-01-22T21:13:40.123Z,26.70
2023-01-22T21:16:16.148Z,25.50
2023-01-22T21:18:44.624Z,28.00
2023-01-22T21:21:14.356Z,30.40
2023-01-22T21:23:42.153Z,25.50
2023-01-22T21:26:12.236Z,22.40
2023-01-22T21:28:42.748Z,22.20
2023-01-22T21:31:11.792Z,23.40
2023-01-22T21:33:39.872Z,24.60
2023-01-22T21:36:08.166Z,23.10
2023-01-22T21:38:35.843Z,27.80
2023-01-22T21:41:17.521Z,27.20
2023-01-22T21:44:04.923Z,20.90
2023-01-22T21:46:38.083Z,25.80
2023-01-22T21:49:16.557Z,22.10
2023-01-22T21:51:51.875Z,18.10
2023-01-22T21:54:22.711Z,19.30
2023-01-22T21:56:50.092Z,18.40
2023-01-22T21:59:17.615Z,19.90
2023-01-22T22:01:45.298Z,19.50
2023-01-22T22:04:13.175Z,20.50
2023-01-22T22:06:40.779Z,20.30
2023-01-22T22:09:11.837Z,18.80
2023-01-22T22:11:39.188Z,24.90
2023-01-22T22:14:09.837Z,19.80
2023-01-22T22:16:37.580Z,19.30
2023-01-22T22:19:05.098Z,19.50
2023-01-22T22:21:32.989Z,17.90
2023-01-22T22:24:00.825Z,20.10
2023-01-22T22:26:28.519Z,18.50
2023-01-22T22:28:56.038Z,17.40
2023-01-22T22:31:23.445Z,18.90
2023-01-22T22:33:52.319Z,21.30
2023-01-22T22:36:21.552Z,20.10
2023-01-22T22:38:49.174Z,18.70
2023-01-22T22:41:21.254Z,21.30
2023-01-22T22:43:51.975Z,21.90
2023-01-22T22:46:22.943Z,21.50
2023-01-22T22:48:51.204Z,20.00
2023-01-22T22:51:21.351Z,20.50
2023-01-22T22:53:51.616Z,25.00
2023-01-22T22:56:19.226Z,25.30
2023-01-22T22:58:46.642Z,25.10
2023-01-22T23:01:16.209Z,22.10
2023-01-22T23:03:43.895Z,24.50
2023-01-22T23:06:16.779Z,24.40
2023-01-22T23:08:46.003Z,21.90
2023-01-22T23:11:14.928Z,20.70
2023-01-22T23:13:48.417Z,19.30
2023-01-22T23:16:19.902Z,20.50
2023-01-22T23:18:48.920Z,19.30
2023-01-22T23:21:19.454Z,25.20
2023-01-22T23:23:47.047Z,21.00
2023-01-22T23:26:16.574Z,21.30
2023-01-22T23:28:44.657Z,23.50
2023-01-22T23:31:13.584Z,23.40
2023-01-22T23:33:41.412Z,21.60
2023-01-22T23:36:13.370Z,19.00
2023-01-22T23:38:41.125Z,21.70
2023-01-22T23:41:10.184Z,23.20
2023-01-22T23:43:37.630Z,23.90
2023-01-22T23:46:09.589Z,21.70
2023-01-22T23:48:37.329Z,22.80
2023-01-22T23:51:05.120Z,21.20
2023-01-22T23:53:35.082Z,20.20
2023-01-22T23:56:03.174Z,20.40
2023-01-22T23:58:30.572Z,18.90
